sensor_id;sensor_type;location;lat;lon;timestamp;P1;durP1;ratioP1;P2;durP2;ratioP2
1753;SDS011;58380;48.312;9.246;2023-06-10T12:17:27;6.20;;;3.00;;
1753;SDS011;58380;48.312;9.246;2023-06-10T12:20:06;5.50;;;3.03;;
1753;SDS011;58380;48.312;9.246;2023-06-10T12:22:41;3.70;;;2.70;;
1753;SDS011;58380;48.312;9.246;2023-06-10T12:25:09;3.47;;;2.72;;
1753;SDS011;58380;48.312;9.246;2023-06-10T12:27:36;4.68;;;2.65;;
1753;SDS011;58380;48.312;9.246;2023-06-10T12:30:04;3.65;;;2.53;;
1753;SDS011;58380;48.312;9.246;2023-06-10T12:32:38;4.93;;;2.60;;
1753;SDS011;58380;48.312;9.246;2023-06-10T12:35:11;3.72;;;2.53;;
1753;SDS011;58380;48.312;9.246;2023-06-10T12:37:54;3.17;;;2.42;;
1753;SDS011;58380;48.312;9.246;2023-06-10T12:40:32;10.15;;;2.92;;
1753;SDS011;58380;48.312;9.246;2023-06-10T12:43:00;3.92;;;2.65;;
1753;SDS011;58380;48.312;9.246;2023-06-10T12:45:30;7.05;;;2.72;;
1753;SDS011;58380;48.312;9.246;2023-06-10T12:48:04;5.43;;;2.97;;
1753;SDS011;58380;48.312;9.246;2023-06-10T12:50:38;5.10;;;2.38;;
1753;SDS011;58380;48.312;9.246;2023-06-10T12:53:06;3.05;;;2.20;;
1753;SDS011;58380;48.312;9.246;2023-06-10T12:55:34;7.20;;;2.47;;
1753;SDS011;58380;48.312;9.246;2023-06-10T12:58:00;3.88;;;2.55;;
1753;SDS011;58380;48.312;9.246;2023-06-10T13:00:26;4.93;;;2.38;;
1753;SDS011;58380;48.312;9.246;2023-06-10T13:02:54;3.53;;;2.30;;
1753;SDS011;58380;48.312;9.246;2023-06-10T13:05:25;3.22;;;2.45;;
1753;SDS011;58380;48.312;9.246;2023-06-10T13:07:51;3.90;;;2.47;;
1753;SDS011;58380;48.312;9.246;2023-06-10T13:10:17;4.13;;;2.30;;
1753;SDS011;58380;48.312;9.246;2023-06-10T13:12:43;3.92;;;2.45;;
1753;SDS011;58380;48.312;9.246;2023-06-10T13:15:10;3.33;;;2.50;;
1753;SDS011;58380;48.312;9.246;2023-06-10T13:17:36;3.58;;;2.17;;
1753;SDS011;58380;48.312;9.246;2023-06-10T13:20:06;3.55;;;2.45;;
1753;SDS011;58380;48.312;9.246;2023-06-10T13:22:33;3.88;;;2.70;;
1753;SDS011;58380;48.312;9.246;2023-06-10T13:25:00;4.45;;;2.80;;
1753;SDS011;58380;48.312;9.246;2023-06-10T13:27:30;3.15;;;2.42;;
1753;SDS011;58380;48.312;9.246;2023-06-10T13:29:56;4.55;;;2.95;;
1753;SDS011;58380;48.312;9.246;2023-06-10T13:32:21;4.10;;;3.03;;
1753;SDS011;58380;48.312;9.246;2023-06-10T13:34:47;3.10;;;2.40;;
1753;SDS011;58380;48.312;9.246;2023-06-10T13:37:14;3.97;;;3.00;;
1753;SDS011;58380;48.312;9.246;2023-06-10T13:39:40;4.47;;;2.80;;
1753;SDS011;58380;48.312;9.246;2023-06-10T13:42:06;3.05;;;2.60;;
1753;SDS011;58380;48.312;9.246;2023-06-10T13:44:32;3.63;;;2.83;;
1753;SDS011;58380;48.312;9.246;2023-06-10T13:47:01;4.28;;;2.92;;
1753;SDS011;58380;48.312;9.246;2023-06-10T13:49:27;4.07;;;2.90;;
1753;SDS011;58380;48.312;9.246;2023-06-10T13:51:53;4.25;;;2.90;;
1753;SDS011;58380;48.312;9.246;2023-06-10T13:54:19;5.90;;;2.90;;
1753;SDS011;58380;48.312;9.246;2023-06-10T13:56:44;3.38;;;2.72;;
1753;SDS011;58380;48.312;9.246;2023-06-10T13:59:10;3.75;;;2.67;;
1753;SDS011;58380;48.312;9.246;2023-06-10T14:01:35;4.80;;;2.60;;
1753;SDS011;58380;48.312;9.246;2023-06-10T14:04:01;3.58;;;2.80;;
1753;SDS011;58380;48.312;9.246;2023-06-10T14:06:27;4.60;;;3.10;;
1753;SDS011;58380;48.312;9.246;2023-06-10T14:08:53;5.05;;;2.50;;
1753;SDS011;58380;48.312;9.246;2023-06-10T14:11:19;6.13;;;2.85;;
1753;SDS011;58380;48.312;9.246;2023-06-10T14:13:46;3.13;;;2.47;;
1753;SDS011;58380;48.312;9.246;2023-06-10T14:16:11;4.07;;;2.92;;
1753;SDS011;58380;48.312;9.246;2023-06-10T14:18:37;4.25;;;2.70;;
1753;SDS011;58380;48.312;9.246;2023-06-10T14:21:02;3.78;;;2.78;;
1753;SDS011;58380;48.312;9.246;2023-06-10T14:23:28;5.28;;;2.80;;
1753;SDS011;58380;48.312;9.246;2023-06-10T14:25:53;5.05;;;3.08;;
1753;SDS011;58380;48.312;9.246;2023-06-10T14:28:18;5.30;;;2.80;;
1753;SDS011;58380;48.312;9.246;2023-06-10T14:30:44;5.78;;;2.97;;
1753;SDS011;58380;48.312;9.246;2023-06-10T14:33:09;4.60;;;2.85;;
1753;SDS011;58380;48.312;9.246;2023-06-10T14:35:35;4.70;;;3.05;;
1753;SDS011;58380;48.312;9.246;2023-06-10T14:38:00;3.60;;;2.80;;
1753;SDS011;58380;48.312;9.246;2023-06-10T14:40:26;3.38;;;2.90;;
1753;SDS011;58380;48.312;9.246;2023-06-10T14:42:53;5.38;;;3.05;;
1753;SDS011;58380;48.312;9.246;2023-06-10T14:45:22;4.07;;;2.72;;
1753;SDS011;58380;48.312;9.246;2023-06-10T14:47:48;4.28;;;2.90;;
1753;SDS011;58380;48.312;9.246;2023-06-10T14:50:13;3.40;;;2.67;;
1753;SDS011;58380;48.312;9.246;2023-06-10T14:52:39;4.55;;;2.92;;
1753;SDS011;58380;48.312;9.246;2023-06-10T14:55:05;3.60;;;3.10;;
1753;SDS011;58380;48.312;9.246;2023-06-10T14:57:31;3.80;;;3.10;;
1753;SDS011;58380;48.312;9.246;2023-06-10T14:59:56;6.47;;;2.92;;
1753;SDS011;58380;48.312;9.246;2023-06-10T15:02:22;3.55;;;2.50;;
1753;SDS011;58380;48.312;9.246;2023-06-10T15:04:48;4.30;;;2.63;;
1753;SDS011;58380;48.312;9.246;2023-06-10T15:07:13;2.40;;;1.95;;
1753;SDS011;58380;48.312;9.246;2023-06-10T15:09:40;3.50;;;2.35;;
1753;SDS011;58380;48.312;9.246;2023-06-10T15:12:07;3.55;;;2.10;;
1753;SDS011;58380;48.312;9.246;2023-06-10T15:14:33;2.88;;;2.20;;
1753;SDS011;58380;48.312;9.246;2023-06-10T15:16:59;7.93;;;2.88;;
1753;SDS011;58380;48.312;9.246;2023-06-10T15:19:25;5.78;;;3.22;;
1753;SDS011;58380;48.312;9.246;2023-06-10T15:21:52;3.50;;;2.70;;
1753;SDS011;58380;48.312;9.246;2023-06-10T15:24:18;3.83;;;2.70;;
1753;SDS011;58380;48.312;9.246;2023-06-10T15:26:43;5.57;;;3.03;;
1753;SDS011;58380;48.312;9.246;2023-06-10T15:29:09;6.53;;;2.85;;
1753;SDS011;58380;48.312;9.246;2023-06-10T15:31:35;4.60;;;3.00;;
1753;SDS011;58380;48.312;9.246;2023-06-10T15:36:26;6.75;;;3.22;;
1753;SDS011;58380;48.312;9.246;2023-06-10T15:38:52;3.33;;;2.65;;
1753;SDS011;58380;48.312;9.246;2023-06-10T15:41:18;5.40;;;3.88;;
1753;SDS011;58380;48.312;9.246;2023-06-10T15:43:44;5.55;;;3.78;;
1753;SDS011;58380;48.312;9.246;2023-06-10T15:48:35;4.28;;;3.38;;
1753;SDS011;58380;48.312;9.246;2023-06-10T15:51:00;4.57;;;3.63;;
1753;SDS011;58380;48.312;9.246;2023-06-10T15:53:26;5.68;;;3.55;;
1753;SDS011;58380;48.312;9.246;2023-06-10T15:55:51;5.43;;;3.65;;
1753;SDS011;58380;48.312;9.246;2023-06-10T15:58:17;4.00;;;3.50;;
1753;SDS011;58380;48.312;9.246;2023-06-10T16:00:42;5.07;;;3.33;;
1753;SDS011;58380;48.312;9.246;2023-06-10T16:03:08;4.18;;;3.70;;
1753;SDS011;58380;48.312;9.246;2023-06-10T16:05:33;5.47;;;3.67;;
1753;SDS011;58380;48.312;9.246;2023-06-10T16:07:58;4.95;;;3.78;;
1753;SDS011;58380;48.312;9.246;2023-06-10T16:10:24;4.80;;;3.92;;
1753;SDS011;58380;48.312;9.246;2023-06-10T16:12:50;5.82;;;3.80;;
1753;SDS011;58380;48.312;9.246;2023-06-10T16:15:16;5.80;;;4.05;;
1753;SDS011;58380;48.312;9.246;2023-06-10T16:17:41;5.22;;;4.20;;
1753;SDS011;58380;48.312;9.246;2023-06-10T16:20:08;5.50;;;4.25;;
1753;SDS011;58380;48.312;9.246;2023-06-10T16:22:34;5.03;;;3.72;;
1753;SDS011;58380;48.312;9.246;2023-06-10T16:24:59;4.90;;;3.72;;
1753;SDS011;58380;48.312;9.246;2023-06-10T16:27:25;4.93;;;3.78;;
1753;SDS011;58380;48.312;9.246;2023-06-10T16:29:51;4.75;;;3.83;;
1753;SDS011;58380;48.312;9.246;2023-06-10T16:32:17;5.38;;;3.60;;
1753;SDS011;58380;48.312;9.246;2023-06-10T16:34:43;5.05;;;3.78;;
1753;SDS011;58380;48.312;9.246;2023-06-10T16:37:08;4.40;;;3.50;;
1753;SDS011;58380;48.312;9.246;2023-06-10T16:39:34;4.10;;;3.35;;
1753;SDS011;58380;48.312;9.246;2023-06-10T16:41:59;7.22;;;3.85;;
1753;SDS011;58380;48.312;9.246;2023-06-10T16:44:25;5.47;;;3.60;;
1753;SDS011;58380;48.312;9.246;2023-06-10T16:46:50;4.80;;;3.72;;
1753;SDS011;58380;48.312;9.246;2023-06-10T16:49:16;5.07;;;4.13;;
1753;SDS011;58380;48.312;9.246;2023-06-10T16:51:41;4.00;;;3.30;;
1753;SDS011;58380;48.312;9.246;2023-06-10T16:54:07;7.20;;;3.80;;
1753;SDS011;58380;48.312;9.246;2023-06-10T16:56:33;7.00;;;3.72;;
1753;SDS011;58380;48.312;9.246;2023-06-10T16:58:59;5.10;;;3.85;;
1753;SDS011;58380;48.312;9.246;2023-06-10T17:01:25;5.55;;;3.80;;
1753;SDS011;58380;48.312;9.246;2023-06-10T17:03:51;6.55;;;3.90;;
1753;SDS011;58380;48.312;9.246;2023-06-10T17:08:43;6.93;;;4.35;;
1753;SDS011;58380;48.312;9.246;2023-06-10T17:11:09;4.65;;;3.60;;
1753;SDS011;58380;48.312;9.246;2023-06-10T17:13:35;4.72;;;3.90;;
1753;SDS011;58380;48.312;9.246;2023-06-10T17:16:00;4.97;;;3.78;;
1753;SDS011;58380;48.312;9.246;2023-06-10T17:18:26;4.80;;;3.63;;
1753;SDS011;58380;48.312;9.246;2023-06-10T17:20:51;5.22;;;4.13;;
1753;SDS011;58380;48.312;9.246;2023-06-10T17:23:17;5.85;;;4.10;;
1753;SDS011;58380;48.312;9.246;2023-06-10T17:25:42;5.53;;;4.22;;
1753;SDS011;58380;48.312;9.246;2023-06-10T17:28:07;4.68;;;3.67;;
1753;SDS011;58380;48.312;9.246;2023-06-10T17:32:58;6.57;;;4.50;;
1753;SDS011;58380;48.312;9.246;2023-06-10T17:35:24;6.03;;;4.45;;
1753;SDS011;58380;48.312;9.246;2023-06-10T17:37:49;5.32;;;4.50;;
1753;SDS011;58380;48.312;9.246;2023-06-10T17:42:40;5.43;;;4.13;;
1753;SDS011;58380;48.312;9.246;2023-06-10T17:47:32;6.82;;;3.92;;
1753;SDS011;58380;48.312;9.246;2023-06-10T17:52:23;5.50;;;4.25;;
1753;SDS011;58380;48.312;9.246;2023-06-10T17:57:14;4.57;;;3.72;;
1753;SDS011;58380;48.312;9.246;2023-06-10T18:02:05;9.15;;;4.50;;
1753;SDS011;58380;48.312;9.246;2023-06-10T18:06:56;6.85;;;3.60;;
1753;SDS011;58380;48.312;9.246;2023-06-10T18:11:50;4.85;;;3.78;;
1753;SDS011;58380;48.312;9.246;2023-06-10T18:16:41;6.30;;;3.88;;
1753;SDS011;58380;48.312;9.246;2023-06-10T18:19:06;5.25;;;3.80;;
1753;SDS011;58380;48.312;9.246;2023-06-10T18:23:57;6.10;;;4.40;;
1753;SDS011;58380;48.312;9.246;2023-06-10T18:28:47;4.68;;;3.45;;
1753;SDS011;58380;48.312;9.246;2023-06-10T18:33:38;5.97;;;4.20;;
1753;SDS011;58380;48.312;9.246;2023-06-10T18:38:29;4.88;;;3.60;;
1753;SDS011;58380;48.312;9.246;2023-06-10T18:40:55;6.57;;;3.30;;
1753;SDS011;58380;48.312;9.246;2023-06-10T18:45:46;5.07;;;3.60;;
1753;SDS011;58380;48.312;9.246;2023-06-10T18:50:37;4.50;;;3.60;;
1753;SDS011;58380;48.312;9.246;2023-06-10T18:55:27;4.47;;;3.42;;
1753;SDS011;58380;48.312;9.246;2023-06-10T19:00:18;7.80;;;3.50;;
1753;SDS011;58380;48.312;9.246;2023-06-10T19:05:09;3.97;;;2.97;;
1753;SDS011;58380;48.312;9.246;2023-06-10T19:07:37;5.70;;;3.10;;
1753;SDS011;58380;48.312;9.246;2023-06-10T19:10:03;3.63;;;3.13;;
1753;SDS011;58380;48.312;9.246;2023-06-10T19:14:54;6.78;;;3.45;;
1753;SDS011;58380;48.312;9.246;2023-06-10T19:19:45;6.53;;;3.60;;
1753;SDS011;58380;48.312;9.246;2023-06-10T19:24:36;5.47;;;3.50;;
1753;SDS011;58380;48.312;9.246;2023-06-10T19:27:03;5.97;;;3.47;;
1753;SDS011;58380;48.312;9.246;2023-06-10T19:31:54;7.43;;;3.90;;
1753;SDS011;58380;48.312;9.246;2023-06-10T19:36:45;5.65;;;3.25;;
1753;SDS011;58380;48.312;9.246;2023-06-10T19:41:36;5.35;;;3.67;;
1753;SDS011;58380;48.312;9.246;2023-06-10T19:46:27;3.97;;;3.25;;
1753;SDS011;58380;48.312;9.246;2023-06-10T19:48:52;4.80;;;3.25;;
1753;SDS011;58380;48.312;9.246;2023-06-10T19:53:46;5.78;;;3.58;;
1753;SDS011;58380;48.312;9.246;2023-06-10T19:56:12;4.80;;;3.30;;
1753;SDS011;58380;48.312;9.246;2023-06-10T19:58:43;6.25;;;3.72;;
1753;SDS011;58380;48.312;9.246;2023-06-10T20:01:12;4.75;;;3.53;;
1753;SDS011;58380;48.312;9.246;2023-06-10T20:03:37;5.05;;;3.55;;
1753;SDS011;58380;48.312;9.246;2023-06-10T20:08:28;5.03;;;3.78;;
1753;SDS011;58380;48.312;9.246;2023-06-10T20:10:54;4.80;;;3.70;;
1753;SDS011;58380;48.312;9.246;2023-06-10T20:13:19;5.88;;;3.72;;
1753;SDS011;58380;48.312;9.246;2023-06-10T20:18:10;6.43;;;3.55;;
1753;SDS011;58380;48.312;9.246;2023-06-10T20:20:35;5.03;;;3.65;;
1753;SDS011;58380;48.312;9.246;2023-06-10T20:23:01;5.07;;;3.78;;
1753;SDS011;58380;48.312;9.246;2023-06-10T20:25:26;4.80;;;3.80;;
1753;SDS011;58380;48.312;9.246;2023-06-10T20:27:52;6.43;;;3.88;;
1753;SDS011;58380;48.312;9.246;2023-06-10T20:30:17;5.90;;;3.80;;
1753;SDS011;58380;48.312;9.246;2023-06-10T20:32:42;5.78;;;3.53;;
1753;SDS011;58380;48.312;9.246;2023-06-10T20:35:08;4.72;;;3.40;;
